createdAt,value
2022-10-13T00:01:12.490Z,68.33
2022-10-13T00:03:41.882Z,59.43
2022-10-13T00:06:12.061Z,74.27
2022-10-13T00:08:40.796Z,68.07
2022-10-13T00:11:13.618Z,69.70
2022-10-13T00:13:42.437Z,64.37
2022-10-13T00:16:14.264Z,74.67
2022-10-13T00:18:42.235Z,63.60
2022-10-13T00:21:11.953Z,68.20
2022-10-13T00:23:40.744Z,74.30
2022-10-13T00:26:10.536Z,108.73
2022-10-13T00:28:39.117Z,104.10
2022-10-13T00:31:18.089Z,94.77
2022-10-13T00:33:46.059Z,93.97
2022-10-13T00:36:14.046Z,95.70
2022-10-13T00:38:42.283Z,85.17
2022-10-13T00:41:10.840Z,83.40
2022-10-13T00:43:52.888Z,78.57
2022-10-13T00:46:22.217Z,89.03
2022-10-13T00:48:51.863Z,79.13
2022-10-13T00:51:23.623Z,82.83
2022-10-13T00:53:52.494Z,80.60
2022-10-13T00:56:22.350Z,80.77
2022-10-13T00:58:50.871Z,64.43
2022-10-13T01:01:19.031Z,73.80
2022-10-13T01:03:48.291Z,69.10
2022-10-13T01:06:23.273Z,65.00
2022-10-13T01:08:51.997Z,79.33
2022-10-13T01:11:49.291Z,81.70
2022-10-13T01:14:24.570Z,77.87
2022-10-13T01:17:02.180Z,76.83
2022-10-13T01:20:01.013Z,68.03
2022-10-13T01:22:46.771Z,70.70
2022-10-13T01:25:30.121Z,62.87
2022-10-13T01:28:16.079Z,64.40
2022-10-13T01:30:50.238Z,71.17
2022-10-13T01:33:27.937Z,65.27
2022-10-13T01:36:03.761Z,74.03
2022-10-13T01:38:38.252Z,69.30
2022-10-13T01:41:12.853Z,71.37
2022-10-13T01:43:45.483Z,71.23
2022-10-13T01:46:18.554Z,69.87
2022-10-13T01:48:46.894Z,66.83
2022-10-13T01:51:17.684Z,70.53
2022-10-13T01:53:47.153Z,63.30
2022-10-13T01:56:15.412Z,71.00
2022-10-13T01:58:43.324Z,71.77
2022-10-13T02:01:30.611Z,63.27
2022-10-13T02:04:11.018Z,65.03
2022-10-13T02:06:44.263Z,68.60
2022-10-13T02:09:17.160Z,70.97
2022-10-13T02:11:50.486Z,70.93
2022-10-13T02:14:23.175Z,66.67
2022-10-13T02:16:54.419Z,69.67
2022-10-13T02:19:23.062Z,74.53
2022-10-13T02:21:51.410Z,63.73
2022-10-13T02:24:19.792Z,67.77
2022-10-13T02:26:48.121Z,62.37
2022-10-13T02:29:17.821Z,74.63
2022-10-13T02:31:46.673Z,69.23
2022-10-13T02:34:16.197Z,58.43
2022-10-13T02:36:44.464Z,61.40
2022-10-13T02:39:12.861Z,64.03
2022-10-13T02:41:40.782Z,65.30
2022-10-13T02:44:09.018Z,59.07
2022-10-13T02:46:36.990Z,66.40
2022-10-13T02:49:04.939Z,64.77
2022-10-13T02:51:38.966Z,75.77
2022-10-13T02:54:08.282Z,78.90
2022-10-13T02:56:36.507Z,77.20
2022-10-13T02:59:04.762Z,93.53
2022-10-13T03:01:33.125Z,91.70
2022-10-13T03:04:01.026Z,91.50
2022-10-13T03:06:28.904Z,87.07
2022-10-13T03:08:58.147Z,80.77
2022-10-13T03:11:26.124Z,68.90
2022-10-13T03:13:54.249Z,66.10
2022-10-13T03:16:22.187Z,63.57
2022-10-13T03:18:50.085Z,59.70
2022-10-13T03:21:18.046Z,65.17
2022-10-13T03:23:45.948Z,65.73
2022-10-13T03:26:15.610Z,60.40
2022-10-13T03:28:43.656Z,65.67
2022-10-13T03:31:13.712Z,59.90
2022-10-13T03:33:42.065Z,59.40
2022-10-13T03:36:11.591Z,65.27
2022-10-13T03:38:39.506Z,44.30
2022-10-13T03:41:08.469Z,52.07
2022-10-13T03:43:38.144Z,42.37
2022-10-13T03:46:07.873Z,36.67
2022-10-13T03:48:37.009Z,33.97
2022-10-13T03:51:07.385Z,42.33
2022-10-13T03:53:36.012Z,39.07
2022-10-13T03:56:05.098Z,42.00
2022-10-13T03:58:33.367Z,39.73
2022-10-13T04:01:06.956Z,41.57
2022-10-13T04:03:35.604Z,44.57
2022-10-13T04:06:05.036Z,44.43
2022-10-13T04:08:34.763Z,44.77
2022-10-13T04:11:04.114Z,47.27
2022-10-13T04:13:32.337Z,43.33
2022-10-13T04:16:05.131Z,50.53
2022-10-13T04:18:33.335Z,52.27
2022-10-13T04:21:01.769Z,60.90
2022-10-13T04:23:29.667Z,49.57
2022-10-13T04:25:57.775Z,52.17
2022-10-13T04:28:25.862Z,60.03
2022-10-13T04:30:54.075Z,55.97
2022-10-13T04:33:23.330Z,65.23
2022-10-13T04:35:51.286Z,60.50
2022-10-13T04:38:19.178Z,46.40
2022-10-13T04:40:47.085Z,44.03
2022-10-13T04:43:15.886Z,52.10
2022-10-13T04:45:43.890Z,54.47
2022-10-13T04:48:11.973Z,77.57
2022-10-13T04:50:41.331Z,55.23
2022-10-13T04:53:09.258Z,62.27
2022-10-13T04:55:37.601Z,66.07
2022-10-13T04:58:05.842Z,65.83
2022-10-13T05:00:33.872Z,69.20
2022-10-13T05:03:01.861Z,59.10
2022-10-13T05:05:29.727Z,60.50
2022-10-13T05:07:58.973Z,62.97
2022-10-13T05:10:30.147Z,67.60
2022-10-13T05:13:00.472Z,62.13
2022-10-13T05:15:28.431Z,65.23
2022-10-13T05:17:56.563Z,70.00
2022-10-13T05:20:24.451Z,66.43
2022-10-13T05:22:52.419Z,72.20
2022-10-13T05:25:22.187Z,61.63
2022-10-13T05:27:50.064Z,65.40
2022-10-13T05:30:18.123Z,63.83
2022-10-13T05:32:48.289Z,71.97
2022-10-13T05:35:18.364Z,77.57
2022-10-13T05:37:46.242Z,68.80
2022-10-13T05:40:14.506Z,66.93
2022-10-13T05:42:43.842Z,74.97
2022-10-13T05:45:13.427Z,68.00
2022-10-13T05:47:41.696Z,77.03
2022-10-13T05:50:10.115Z,62.60
2022-10-13T05:52:38.860Z,66.83
2022-10-13T05:55:11.018Z,67.77
2022-10-13T05:57:42.096Z,70.17
2022-10-13T06:00:14.467Z,73.23
2022-10-13T06:02:44.230Z,76.17
2022-10-13T06:05:15.057Z,72.27
2022-10-13T06:07:43.896Z,75.97
2022-10-13T06:10:12.620Z,71.03
2022-10-13T06:12:40.875Z,68.87
2022-10-13T06:15:09.890Z,71.80
2022-10-13T06:17:40.008Z,67.23
2022-10-13T06:20:09.776Z,76.40
2022-10-13T06:22:38.477Z,79.50
2022-10-13T06:25:08.310Z,81.17
2022-10-13T06:27:36.202Z,85.17
2022-10-13T06:30:04.365Z,85.60
2022-10-13T06:32:32.276Z,87.83
2022-10-13T06:35:01.531Z,94.33
2022-10-13T06:37:29.482Z,89.80
2022-10-13T06:39:57.730Z,93.10
2022-10-13T06:42:25.988Z,76.50
2022-10-13T06:44:54.246Z,82.57
2022-10-13T06:47:22.460Z,86.80
2022-10-13T06:49:50.715Z,82.27
2022-10-13T06:52:20.526Z,78.80
2022-10-13T06:54:48.938Z,79.93
2022-10-13T06:57:17.303Z,84.93
2022-10-13T06:59:45.544Z,79.83
2022-10-13T07:02:13.776Z,73.87
2022-10-13T07:04:42.002Z,74.70
2022-10-13T07:07:10.228Z,78.97
2022-10-13T07:09:39.872Z,77.07
2022-10-13T07:12:08.563Z,65.67
2022-10-13T07:14:39.214Z,66.07
2022-10-13T07:17:09.903Z,68.37
2022-10-13T07:19:38.174Z,63.23
2022-10-13T07:22:06.427Z,61.13
2022-10-13T07:24:34.719Z,63.27
2022-10-13T07:27:07.797Z,63.07
2022-10-13T07:29:36.418Z,57.63
2022-10-13T07:32:04.685Z,60.03
2022-10-13T07:34:32.966Z,55.77
2022-10-13T07:37:01.220Z,58.73
2022-10-13T07:39:30.621Z,53.00
2022-10-13T07:41:58.841Z,47.23
2022-10-13T07:44:28.682Z,52.80
2022-10-13T07:46:56.898Z,47.83
2022-10-13T07:49:25.320Z,49.27
2022-10-13T07:51:53.627Z,50.07
2022-10-13T07:54:23.844Z,48.17
2022-10-13T07:56:56.238Z,49.77
2022-10-13T07:59:24.516Z,46.77
2022-10-13T08:01:54.326Z,45.83
2022-10-13T08:04:22.600Z,47.67
2022-10-13T08:06:50.881Z,42.30
2022-10-13T08:09:19.097Z,37.93
2022-10-13T08:11:47.347Z,40.87
2022-10-13T08:14:15.628Z,51.70
2022-10-13T08:16:48.650Z,39.57
2022-10-13T08:19:22.144Z,38.67
2022-10-13T08:21:59.186Z,37.10
2022-10-13T08:24:28.348Z,41.73
2022-10-13T08:26:56.635Z,34.78
2022-10-13T08:29:24.852Z,35.85
2022-10-13T08:31:53.675Z,35.63
2022-10-13T08:34:23.536Z,27.90
2022-10-13T08:36:53.513Z,25.13
2022-10-13T08:39:22.104Z,26.70
2022-10-13T08:41:50.654Z,20.95
2022-10-13T08:47:14.199Z,22.60
2022-10-13T08:49:46.172Z,23.63
2022-10-13T08:52:19.023Z,23.00
2022-10-13T08:54:47.697Z,20.05
2022-10-13T08:57:16.105Z,14.85
2022-10-13T08:59:44.381Z,18.88
2022-10-13T09:02:14.210Z,15.27
2022-10-13T09:04:46.617Z,12.90
2022-10-13T09:07:16.781Z,13.30
2022-10-13T09:09:45.642Z,13.73
2022-10-13T09:12:15.690Z,12.02
2022-10-13T09:14:43.947Z,13.32
2022-10-13T09:17:17.083Z,9.75
2022-10-13T09:19:47.805Z,7.45
2022-10-13T09:22:17.470Z,9.57
2022-10-13T09:24:45.916Z,10.43
2022-10-13T09:27:16.468Z,9.85
2022-10-13T09:29:45.147Z,12.35
2022-10-13T09:32:18.219Z,9.95
2022-10-13T09:34:48.710Z,11.95
2022-10-13T09:37:21.385Z,10.73
2022-10-13T09:40:02.106Z,7.38
2022-10-13T09:42:31.948Z,10.40
2022-10-13T09:45:01.713Z,7.90
2022-10-13T09:47:30.918Z,14.32
2022-10-13T09:50:06.518Z,11.00
2022-10-13T09:52:36.236Z,10.35
2022-10-13T09:55:04.458Z,8.38
2022-10-13T09:57:36.368Z,10.90
2022-10-13T10:00:09.520Z,11.10
2022-10-13T10:02:39.202Z,11.80
2022-10-13T10:05:15.875Z,7.60
2022-10-13T10:07:44.555Z,9.25
2022-10-13T10:10:18.161Z,7.47
2022-10-13T10:12:47.074Z,11.40
2022-10-13T10:15:22.137Z,10.32
2022-10-13T10:17:54.197Z,12.18
2022-10-13T10:20:37.400Z,8.48
2022-10-13T10:23:07.830Z,13.88
2022-10-13T10:25:39.849Z,13.75
2022-10-13T10:28:16.286Z,12.82
2022-10-13T10:30:45.993Z,13.80
2022-10-13T10:33:15.506Z,8.98
2022-10-13T10:35:50.394Z,13.25
2022-10-13T10:38:30.134Z,9.48
2022-10-13T10:41:06.102Z,11.95
2022-10-13T10:43:44.329Z,13.27
2022-10-13T10:46:17.019Z,11.00
2022-10-13T10:48:46.902Z,7.35
2022-10-13T10:51:16.462Z,11.35
2022-10-13T10:53:54.934Z,14.23
2022-10-13T10:56:30.191Z,8.55
2022-10-13T10:59:23.778Z,10.02
2022-10-13T11:02:08.087Z,13.68
2022-10-13T11:04:41.557Z,10.90
2022-10-13T11:07:16.012Z,9.75
2022-10-13T11:10:17.479Z,11.00
2022-10-13T11:13:27.199Z,12.75
2022-10-13T11:15:55.703Z,9.55
2022-10-13T11:18:56.431Z,12.25
2022-10-13T11:21:24.311Z,8.30
2022-10-13T11:23:54.833Z,10.98
2022-10-13T11:26:32.476Z,8.38
2022-10-13T11:29:01.097Z,9.65
2022-10-13T11:31:35.270Z,10.52
2022-10-13T11:34:04.600Z,11.85
2022-10-13T11:36:47.921Z,15.13
2022-10-13T11:40:00.399Z,9.30
2022-10-13T11:42:59.247Z,12.98
2022-10-13T11:46:04.437Z,9.35
2022-10-13T11:49:15.819Z,7.35
2022-10-13T11:52:04.294Z,9.90
2022-10-13T11:54:37.673Z,11.02
2022-10-13T11:57:19.837Z,9.55
2022-10-13T11:59:51.546Z,8.52
2022-10-13T12:02:19.784Z,9.18
2022-10-13T12:05:02.078Z,8.77
2022-10-13T12:07:35.782Z,6.88
2022-10-13T12:10:09.812Z,11.60
2022-10-13T12:12:37.869Z,9.18
2022-10-13T12:15:32.136Z,10.02
2022-10-13T12:18:00.278Z,7.28
2022-10-13T12:20:30.147Z,7.13
2022-10-13T12:22:58.575Z,9.18
2022-10-13T12:25:30.998Z,10.15
2022-10-13T12:28:01.004Z,6.75
2022-10-13T12:30:31.752Z,8.15
2022-10-13T12:33:01.615Z,10.52
2022-10-13T12:35:31.656Z,7.97
2022-10-13T12:38:03.573Z,14.25
2022-10-13T12:40:33.097Z,8.85
2022-10-13T12:43:01.384Z,10.02
2022-10-13T12:45:32.972Z,9.48
2022-10-13T12:48:00.931Z,10.55
2022-10-13T12:50:39.034Z,10.20
2022-10-13T12:53:14.614Z,10.23
2022-10-13T12:55:55.219Z,10.40
2022-10-13T12:58:26.315Z,9.75
2022-10-13T13:01:02.063Z,13.50
2022-10-13T13:03:31.264Z,10.60
2022-10-13T13:06:11.150Z,11.80
2022-10-13T13:08:39.238Z,10.18
2022-10-13T13:11:20.719Z,15.63
2022-10-13T13:13:48.680Z,8.60
2022-10-13T13:16:18.237Z,9.35
2022-10-13T13:18:46.926Z,11.85
2022-10-13T13:21:16.741Z,8.10
2022-10-13T13:23:51.048Z,8.27
2022-10-13T13:26:24.536Z,11.60
2022-10-13T13:28:54.106Z,11.68
2022-10-13T13:31:24.387Z,13.88
2022-10-13T13:33:52.598Z,10.95
2022-10-13T13:36:22.526Z,9.40
2022-10-13T13:38:51.220Z,12.18
2022-10-13T13:41:19.240Z,7.32
2022-10-13T13:43:48.773Z,12.07
2022-10-13T13:46:20.451Z,10.68
2022-10-13T13:48:48.618Z,9.05
2022-10-13T13:51:16.836Z,11.93
2022-10-13T13:53:45.035Z,13.13
2022-10-13T13:56:15.067Z,10.90
2022-10-13T13:58:43.183Z,8.93
2022-10-13T14:01:14.031Z,10.45
2022-10-13T14:03:41.939Z,11.23
2022-10-13T14:06:10.081Z,8.85
2022-10-13T14:08:42.312Z,11.25
2022-10-13T14:11:11.602Z,10.60
2022-10-13T14:13:39.604Z,11.05
2022-10-13T14:16:08.058Z,11.60
2022-10-13T14:18:37.313Z,10.18
2022-10-13T14:21:07.243Z,9.02
2022-10-13T14:23:36.082Z,12.25
2022-10-13T14:26:07.983Z,10.13
2022-10-13T14:28:35.954Z,11.40
2022-10-13T14:31:07.739Z,12.23
2022-10-13T14:33:38.103Z,11.45
2022-10-13T14:36:08.195Z,11.18
2022-10-13T14:38:36.377Z,10.70
2022-10-13T14:41:07.650Z,9.60
2022-10-13T14:43:35.567Z,11.82
2022-10-13T14:46:05.011Z,13.02
2022-10-13T14:48:33.005Z,10.60
2022-10-13T14:51:05.687Z,9.65
2022-10-13T14:53:35.112Z,10.57
2022-10-13T14:56:03.344Z,10.18
2022-10-13T14:58:31.285Z,9.27
2022-10-13T15:00:59.192Z,12.57
2022-10-13T15:03:27.883Z,11.48
2022-10-13T15:05:55.820Z,13.93
2022-10-13T15:08:25.126Z,15.75
2022-10-13T15:10:59.854Z,14.48
2022-10-13T15:13:27.934Z,11.63
2022-10-13T15:15:55.960Z,15.95
2022-10-13T15:18:28.381Z,11.70
2022-10-13T15:20:57.799Z,20.10
2022-10-13T15:23:27.576Z,14.00
2022-10-13T15:25:57.097Z,11.90
2022-10-13T15:28:26.518Z,14.45
2022-10-13T15:30:54.497Z,15.57
2022-10-13T15:33:23.027Z,17.27
2022-10-13T15:35:51.679Z,13.52
2022-10-13T15:38:21.084Z,13.68
2022-10-13T15:40:50.799Z,15.13
2022-10-13T15:43:19.355Z,9.52
2022-10-13T15:45:55.059Z,13.38
2022-10-13T15:48:23.184Z,15.77
2022-10-13T15:50:51.087Z,16.63
2022-10-13T15:53:19.773Z,15.10
2022-10-13T15:55:48.045Z,18.70
2022-10-13T15:58:17.514Z,13.20
2022-10-13T16:00:45.884Z,16.90
2022-10-13T16:03:16.881Z,19.98
2022-10-13T16:05:45.746Z,14.20
2022-10-13T16:08:14.023Z,18.67
2022-10-13T16:10:43.281Z,18.95
2022-10-13T16:13:14.984Z,22.02
2022-10-13T16:15:44.299Z,18.13
2022-10-13T16:18:12.365Z,19.23
2022-10-13T16:20:45.251Z,17.98
2022-10-13T16:23:13.161Z,22.80
2022-10-13T16:25:41.169Z,16.73
2022-10-13T16:28:09.071Z,13.82
2022-10-13T16:30:37.445Z,17.85
2022-10-13T16:33:06.806Z,17.85
2022-10-13T16:35:35.283Z,18.48
2022-10-13T16:38:03.207Z,24.42
2022-10-13T16:40:31.110Z,25.02
2022-10-13T16:42:58.985Z,23.13
2022-10-13T16:45:47.875Z,24.08
2022-10-13T16:48:16.241Z,21.33
2022-10-13T16:50:44.203Z,20.65
2022-10-13T16:53:12.117Z,20.42
2022-10-13T16:55:40.618Z,21.05
2022-10-13T16:58:08.527Z,20.73
2022-10-13T17:00:36.927Z,27.95
2022-10-13T17:03:05.092Z,18.63
2022-10-13T17:05:34.875Z,22.67
2022-10-13T17:08:02.802Z,27.85
2022-10-13T17:10:30.705Z,18.42
2022-10-13T17:12:58.594Z,24.35
2022-10-13T17:15:26.684Z,17.48
2022-10-13T17:17:54.590Z,17.33
2022-10-13T17:20:22.580Z,14.68
2022-10-13T17:22:51.806Z,21.35
2022-10-13T17:25:19.746Z,21.10
2022-10-13T17:27:47.676Z,23.52
2022-10-13T17:30:15.673Z,27.50
2022-10-13T17:32:43.703Z,30.48
2022-10-13T17:35:17.886Z,28.30
2022-10-13T17:37:45.826Z,29.35
2022-10-13T17:40:15.167Z,35.08
2022-10-13T17:42:43.206Z,38.30
2022-10-13T17:45:11.564Z,32.55
2022-10-13T17:47:42.366Z,42.85
2022-10-13T17:50:10.859Z,45.75
2022-10-13T17:52:38.777Z,38.85
2022-10-13T17:55:07.343Z,43.37
2022-10-13T17:57:36.607Z,38.97
2022-10-13T18:00:05.627Z,43.15
2022-10-13T18:02:33.531Z,39.70
2022-10-13T18:05:01.422Z,41.97
2022-10-13T18:07:29.284Z,38.83
2022-10-13T18:09:57.159Z,31.80
2022-10-13T18:12:25.075Z,35.10
2022-10-13T18:14:54.335Z,41.20
2022-10-13T18:17:22.644Z,42.43
2022-10-13T18:19:51.044Z,36.50
2022-10-13T18:22:19.040Z,37.30
2022-10-13T18:24:47.728Z,50.13
2022-10-13T18:27:15.677Z,46.93
2022-10-13T18:29:43.800Z,44.77
2022-10-13T18:32:13.068Z,50.93
2022-10-13T18:34:40.989Z,44.57
2022-10-13T18:37:08.878Z,42.17
2022-10-13T18:39:36.776Z,48.63
2022-10-13T18:42:04.788Z,39.17
2022-10-13T18:44:32.681Z,40.80
2022-10-13T18:47:00.668Z,48.67
2022-10-13T18:49:31.798Z,36.83
2022-10-13T18:52:00.929Z,35.97
2022-10-13T18:54:30.033Z,44.73
2022-10-13T18:56:58.610Z,41.40
2022-10-13T18:59:26.601Z,46.03
2022-10-13T19:01:54.503Z,44.63
2022-10-13T19:04:22.587Z,50.00
2022-10-13T19:06:51.849Z,45.17
2022-10-13T19:09:21.605Z,41.93
2022-10-13T19:11:49.532Z,40.08
2022-10-13T19:14:17.634Z,38.73
2022-10-13T19:16:45.632Z,36.95
2022-10-13T19:19:13.673Z,38.80
2022-10-13T19:21:41.758Z,33.27
2022-10-13T19:24:11.690Z,35.23
2022-10-13T19:26:39.762Z,34.53
2022-10-13T19:29:10.000Z,35.70
2022-10-13T19:31:39.167Z,34.50
2022-10-13T19:34:07.082Z,36.57
2022-10-13T19:36:37.495Z,40.60
2022-10-13T19:39:11.836Z,36.60
2022-10-13T19:41:41.728Z,46.17
2022-10-13T19:44:09.634Z,47.27
2022-10-13T19:46:37.692Z,42.80
2022-10-13T19:49:06.084Z,43.33
2022-10-13T19:51:34.499Z,47.30
2022-10-13T19:54:02.469Z,45.57
2022-10-13T19:56:32.989Z,46.53
2022-10-13T19:59:04.358Z,66.17
2022-10-13T20:01:32.378Z,107.70
2022-10-13T20:04:00.311Z,79.93
2022-10-13T20:06:28.255Z,83.17
2022-10-13T20:08:56.186Z,72.43
2022-10-13T20:11:24.539Z,54.67
2022-10-13T20:13:53.685Z,59.50
2022-10-13T20:16:25.054Z,54.67
2022-10-13T20:18:53.913Z,55.80
2022-10-13T20:21:22.361Z,53.80
2022-10-13T20:23:50.923Z,59.50
2022-10-13T20:26:20.120Z,56.83
2022-10-13T20:28:49.148Z,49.43
2022-10-13T20:31:19.352Z,114.97
2022-10-13T20:33:49.595Z,83.97
2022-10-13T20:36:19.055Z,69.33
2022-10-13T20:38:49.039Z,90.93
2022-10-13T20:41:19.735Z,78.07
2022-10-13T20:43:48.717Z,74.23
2022-10-13T20:46:19.422Z,84.27
2022-10-13T20:51:37.765Z,70.10
2022-10-13T20:54:06.174Z,67.00
2022-10-13T20:56:34.125Z,58.77
2022-10-13T20:59:04.054Z,54.83
2022-10-13T21:01:33.813Z,51.30
2022-10-13T21:04:03.110Z,49.27
2022-10-13T21:06:31.080Z,63.57
2022-10-13T21:08:58.963Z,85.20
2022-10-13T21:11:26.913Z,110.97
2022-10-13T21:13:55.131Z,99.83
2022-10-13T21:16:27.135Z,76.20
2022-10-13T21:18:56.580Z,64.97
2022-10-13T21:21:29.677Z,54.00
2022-10-13T21:23:59.242Z,47.80
2022-10-13T21:26:29.326Z,49.90
2022-10-13T21:28:57.662Z,53.37
2022-10-13T21:31:26.488Z,52.47
2022-10-13T21:33:54.674Z,56.67
2022-10-13T21:36:26.361Z,59.53
2022-10-13T21:38:55.949Z,62.83
2022-10-13T21:41:24.373Z,62.30
2022-10-13T21:43:52.778Z,53.10
2022-10-13T21:46:23.247Z,74.27
2022-10-13T21:48:53.344Z,83.83
2022-10-13T21:51:22.746Z,80.27
2022-10-13T21:53:52.980Z,66.20
2022-10-13T21:56:21.813Z,93.73
2022-10-13T21:58:49.939Z,81.77
2022-10-13T22:01:18.416Z,70.93
2022-10-13T22:03:47.648Z,54.53
2022-10-13T22:06:19.406Z,65.50
2022-10-13T22:08:49.236Z,59.27
2022-10-13T22:11:19.315Z,59.97
2022-10-13T22:13:47.586Z,55.23
2022-10-13T22:16:17.968Z,61.77
2022-10-13T22:18:46.549Z,63.80
2022-10-13T22:21:17.416Z,58.30
2022-10-13T22:23:45.618Z,57.83
2022-10-13T22:26:14.006Z,53.20
2022-10-13T22:28:44.262Z,52.37
2022-10-13T22:31:14.012Z,56.80
2022-10-13T22:33:43.512Z,53.23
2022-10-13T22:36:14.396Z,55.13
2022-10-13T22:38:42.347Z,56.60
2022-10-13T22:41:10.802Z,55.00
2022-10-13T22:43:38.705Z,49.43
2022-10-13T22:46:08.037Z,50.03
2022-10-13T22:48:40.406Z,48.83
2022-10-13T22:51:09.319Z,50.47
2022-10-13T22:53:37.378Z,51.60
2022-10-13T22:56:07.427Z,45.23
2022-10-13T22:58:35.597Z,54.33
2022-10-13T23:01:09.672Z,48.30
2022-10-13T23:03:38.113Z,49.67
2022-10-13T23:06:07.800Z,53.47
2022-10-13T23:08:36.376Z,52.83
2022-10-13T23:11:04.259Z,46.97
2022-10-13T23:13:32.249Z,53.20
2022-10-13T23:16:02.922Z,50.20
2022-10-13T23:18:32.158Z,46.27
2022-10-13T23:21:00.133Z,47.47
2022-10-13T23:23:28.031Z,46.97
2022-10-13T23:25:55.917Z,52.73
2022-10-13T23:28:23.860Z,46.90
2022-10-13T23:30:51.797Z,55.73
2022-10-13T23:33:19.698Z,53.47
2022-10-13T23:35:55.918Z,45.37
2022-10-13T23:38:24.322Z,46.03
2022-10-13T23:40:52.391Z,53.40
2022-10-13T23:43:20.760Z,45.87
2022-10-13T23:45:48.786Z,49.13
2022-10-13T23:48:17.080Z,52.30
2022-10-13T23:50:44.959Z,47.47
2022-10-13T23:53:14.197Z,48.50
2022-10-13T23:55:42.122Z,49.07
2022-10-13T23:58:10.099Z,48.63
